Time;durP1;ratioP1;P1;durP2;ratioP2;P2;SDS_P1;SDS_P2;PMS_P1;PMS_P2;Temp;Humidity;BMP_temperature;BMP_pressure;BME280_temperature;BME280_humidity;BME280_pressure;Samples;Min_cycle;Max_cycle;Signal;HPM_P1;HPM_P2
2023/04/17 00:00:17;;;;;;;5.40;1.50;;;;;;;;;;5008915;28;20056;-79
2023/04/17 00:02:43;;;;;;;3.05;1.20;;;;;;;;;;4993902;28;20432;-78
2023/04/17 00:05:09;;;;;;;3.92;1.38;;;;;;;;;;4993316;28;20032;-78
2023/04/17 00:07:37;;;;;;;3.17;1.50;;;;;;;;;;4993777;28;20511;-78
2023/04/17 00:10:10;;;;;;;4.15;1.33;;;;;;;;;;5008779;28;20421;-78
2023/04/17 00:12:36;;;;;;;3.25;1.33;;;;;;;;;;4984835;28;20034;-79
2023/04/17 00:15:02;;;;;;;3.90;1.20;;;;;;;;;;4993642;28;20022;-80
2023/04/17 00:17:29;;;;;;;1.90;1.10;;;;;;;;;;4993315;28;20065;-78
2023/04/17 00:19:55;;;;;;;1.88;0.98;;;;;;;;;;4993265;28;20073;-78
2023/04/17 00:22:21;;;;;;;2.13;1.00;;;;;;;;;;4993539;28;20023;-78
2023/04/17 00:24:47;;;;;;;2.08;1.08;;;;;;;;;;4993544;28;20030;-78
2023/04/17 00:27:13;;;;;;;2.42;1.10;;;;;;;;;;4992530;28;20070;-77
2023/04/17 00:29:39;;;;;;;1.98;1.10;;;;;;;;;;4991706;28;20057;-79
2023/04/17 00:32:07;;;;;;;3.88;0.90;;;;;;;;;;4992113;28;20100;-78
2023/04/17 00:34:33;;;;;;;3.20;1.00;;;;;;;;;;4985038;28;20101;-78
2023/04/17 00:37:00;;;;;;;2.75;0.80;;;;;;;;;;4992288;28;20043;-80
2023/04/17 00:39:26;;;;;;;2.55;0.98;;;;;;;;;;4992850;28;20396;-81
2023/04/17 00:41:51;;;;;;;2.70;1.10;;;;;;;;;;4985522;28;20034;-81
2023/04/17 00:44:17;;;;;;;3.03;0.85;;;;;;;;;;4989639;28;20057;-79
2023/04/17 00:46:44;;;;;;;3.00;0.98;;;;;;;;;;4993068;28;20030;-80
2023/04/17 00:49:11;;;;;;;1.25;0.82;;;;;;;;;;4992342;28;20041;-80
2023/04/17 00:51:38;;;;;;;1.30;0.90;;;;;;;;;;4989829;28;20124;-79
2023/04/17 00:54:06;;;;;;;2.47;0.90;;;;;;;;;;4990166;28;20105;-80
2023/04/17 00:56:32;;;;;;;2.65;1.02;;;;;;;;;;4991345;28;20077;-79
2023/04/17 00:59:00;;;;;;;1.65;0.90;;;;;;;;;;4992621;28;20030;-79
2023/04/17 01:01:26;;;;;;;1.48;0.90;;;;;;;;;;5007872;28;20041;-79
2023/04/17 01:03:52;;;;;;;3.90;1.10;;;;;;;;;;4992651;28;20019;-79
2023/04/17 01:06:18;;;;;;;2.13;1.00;;;;;;;;;;4992604;28;20026;-79
2023/04/17 01:08:44;;;;;;;2.50;1.17;;;;;;;;;;4991543;28;20030;-79
2023/04/17 01:11:11;;;;;;;2.90;1.10;;;;;;;;;;4998670;28;20026;-79
2023/04/17 01:13:50;;;;;;;3.55;0.90;;;;;;;;;;4992569;28;20032;-79
2023/04/17 01:16:17;;;;;;;2.17;1.20;;;;;;;;;;4975339;28;20053;-79
2023/04/17 01:18:46;;;;;;;4.85;1.10;;;;;;;;;;4992798;28;20062;-79
2023/04/17 01:21:11;;;;;;;2.35;0.77;;;;;;;;;;4971849;28;20485;-79
2023/04/17 01:23:51;;;;;;;3.15;1.08;;;;;;;;;;4987872;28;20081;-79
2023/04/17 01:26:20;;;;;;;2.90;1.10;;;;;;;;;;5007771;28;20080;-77
2023/04/17 01:28:55;;;;;;;4.18;1.30;;;;;;;;;;4990950;28;20077;-79
2023/04/17 01:31:25;;;;;;;1.70;1.00;;;;;;;;;;4991092;28;20034;-79
2023/04/17 01:33:52;;;;;;;1.42;1.00;;;;;;;;;;5007671;28;20034;-80
2023/04/17 01:36:18;;;;;;;1.92;1.20;;;;;;;;;;4974783;28;20030;-79
2023/04/17 01:38:44;;;;;;;1.95;0.98;;;;;;;;;;4992153;28;20078;-80
2023/04/17 01:41:11;;;;;;;1.58;1.05;;;;;;;;;;4994572;28;20050;-79
2023/04/17 01:43:42;;;;;;;3.60;1.30;;;;;;;;;;4996377;28;20038;-79
2023/04/17 01:46:08;;;;;;;1.15;0.90;;;;;;;;;;4995248;28;20034;-80
2023/04/17 01:48:35;;;;;;;2.88;1.10;;;;;;;;;;5010845;28;20134;-80
2023/04/17 01:51:01;;;;;;;3.60;1.10;;;;;;;;;;4994612;28;20031;-79
2023/04/17 01:53:29;;;;;;;3.03;1.40;;;;;;;;;;4994889;28;20026;-80
2023/04/17 01:55:55;;;;;;;2.90;1.20;;;;;;;;;;4996144;28;20400;-80
2023/04/17 01:58:22;;;;;;;2.85;1.20;;;;;;;;;;5010778;28;20042;-79
2023/04/17 02:00:48;;;;;;;2.97;1.30;;;;;;;;;;4994864;28;20125;-79
2023/04/17 02:03:15;;;;;;;2.50;1.00;;;;;;;;;;4995082;28;20389;-79
2023/04/17 02:05:46;;;;;;;1.77;1.20;;;;;;;;;;4994585;28;20030;-78
2023/04/17 02:08:13;;;;;;;4.30;1.20;;;;;;;;;;4994341;28;20042;-79
2023/04/17 02:10:40;;;;;;;3.55;1.20;;;;;;;;;;4996299;28;20502;-79
2023/04/17 02:13:06;;;;;;;2.45;1.25;;;;;;;;;;4994722;28;20038;-80
2023/04/17 02:15:34;;;;;;;2.47;1.30;;;;;;;;;;4995817;28;20117;-77
2023/04/17 02:18:04;;;;;;;3.08;1.45;;;;;;;;;;4994431;28;20034;-79
2023/04/17 02:20:35;;;;;;;2.08;1.40;;;;;;;;;;4995595;28;20037;-79
2023/04/17 02:23:03;;;;;;;4.45;1.20;;;;;;;;;;4995779;28;20026;-80
2023/04/17 02:25:30;;;;;;;6.05;1.20;;;;;;;;;;4994330;28;20030;-80
2023/04/17 02:27:56;;;;;;;4.60;1.50;;;;;;;;;;4995398;28;20037;-78
2023/04/17 02:30:23;;;;;;;2.35;1.08;;;;;;;;;;4995547;28;20022;-79
2023/04/17 02:32:53;;;;;;;3.58;1.35;;;;;;;;;;4995400;28;20054;-79
2023/04/17 02:35:20;;;;;;;2.05;1.20;;;;;;;;;;5010564;28;20042;-79
2023/04/17 02:37:46;;;;;;;2.78;1.45;;;;;;;;;;5010090;28;20249;-82
2023/04/17 02:40:14;;;;;;;2.92;0.95;;;;;;;;;;4978079;28;20563;-80
2023/04/17 02:42:40;;;;;;;5.78;1.20;;;;;;;;;;5027060;28;20026;-79
2023/04/17 02:45:07;;;;;;;3.33;1.30;;;;;;;;;;5010844;28;20100;-79
2023/04/17 02:47:32;;;;;;;1.80;1.13;;;;;;;;;;5010645;28;20030;-79
2023/04/17 02:49:59;;;;;;;3.83;1.30;;;;;;;;;;5026227;28;20562;-78
2023/04/17 02:52:26;;;;;;;2.33;1.27;;;;;;;;;;4994931;28;20030;-79
2023/04/17 02:54:53;;;;;;;2.25;1.40;;;;;;;;;;5010267;28;20093;-79
2023/04/17 02:57:19;;;;;;;3.45;1.38;;;;;;;;;;5026516;28;20030;-80
2023/04/17 02:59:45;;;;;;;2.08;1.30;;;;;;;;;;5026098;28;20042;-79
2023/04/17 03:02:13;;;;;;;3.90;1.30;;;;;;;;;;4995144;28;20105;-80
2023/04/17 03:04:40;;;;;;;3.25;1.05;;;;;;;;;;4977354;28;20034;-80
2023/04/17 03:07:05;;;;;;;4.13;1.20;;;;;;;;;;5009873;28;20088;-80
2023/04/17 03:09:33;;;;;;;1.63;1.10;;;;;;;;;;4993179;28;20083;-81
2023/04/17 03:11:59;;;;;;;4.45;1.20;;;;;;;;;;4993671;28;20026;-80
2023/04/17 03:14:26;;;;;;;3.95;1.38;;;;;;;;;;5009739;28;20427;-80
2023/04/17 03:16:52;;;;;;;3.55;1.17;;;;;;;;;;4994554;28;20096;-79
2023/04/17 03:19:18;;;;;;;4.65;1.10;;;;;;;;;;4976702;28;20169;-80
2023/04/17 03:21:43;;;;;;;2.42;1.40;;;;;;;;;;4994836;28;20029;-80
2023/04/17 03:24:11;;;;;;;8.30;1.70;;;;;;;;;;4993231;28;20539;-81
2023/04/17 03:26:37;;;;;;;5.43;1.13;;;;;;;;;;4993523;28;20374;-80
2023/04/17 03:29:09;;;;;;;3.13;1.00;;;;;;;;;;4992929;28;20045;-80
2023/04/17 03:31:35;;;;;;;1.25;0.98;;;;;;;;;;4993280;28;20038;-80
2023/04/17 03:34:01;;;;;;;1.45;0.98;;;;;;;;;;4992581;28;20492;-79
2023/04/17 03:36:26;;;;;;;2.00;1.00;;;;;;;;;;4994986;28;20026;-78
2023/04/17 03:38:54;;;;;;;2.53;1.05;;;;;;;;;;4993100;28;20491;-78
2023/04/17 03:41:20;;;;;;;4.18;1.48;;;;;;;;;;4999720;28;20058;-78
2023/04/17 03:43:47;;;;;;;2.78;1.17;;;;;;;;;;4969602;28;20018;-78
2023/04/17 03:46:15;;;;;;;2.47;1.10;;;;;;;;;;4989842;28;20038;-78
2023/04/17 03:48:41;;;;;;;4.00;1.33;;;;;;;;;;4973574;28;20115;-78
2023/04/17 03:51:08;;;;;;;1.83;1.02;;;;;;;;;;4988079;28;20121;-78
2023/04/17 03:53:35;;;;;;;2.17;0.98;;;;;;;;;;4983198;28;20026;-79
2023/04/17 03:56:03;;;;;;;1.80;0.93;;;;;;;;;;4993264;28;20026;-79
2023/04/17 03:58:34;;;;;;;5.22;1.40;;;;;;;;;;5008567;28;20025;-78
2023/04/17 04:01:00;;;;;;;3.60;1.30;;;;;;;;;;4992888;28;20113;-78
2023/04/17 04:03:30;;;;;;;3.58;1.20;;;;;;;;;;4992882;28;20068;-78
2023/04/17 04:05:57;;;;;;;4.93;1.38;;;;;;;;;;5009275;28;20404;-79
2023/04/17 04:08:23;;;;;;;2.13;1.10;;;;;;;;;;4992663;28;20018;-78
2023/04/17 04:10:51;;;;;;;3.35;1.13;;;;;;;;;;4992761;28;20121;-78
2023/04/17 04:13:22;;;;;;;2.85;1.23;;;;;;;;;;4977236;28;20034;-78
2023/04/17 04:15:55;;;;;;;2.25;1.02;;;;;;;;;;4992782;28;20095;-78
2023/04/17 04:18:24;;;;;;;3.88;1.48;;;;;;;;;;4992361;28;20046;-78
2023/04/17 04:20:49;;;;;;;1.65;1.20;;;;;;;;;;4992511;28;20466;-78
2023/04/17 04:23:23;;;;;;;2.22;1.20;;;;;;;;;;5008848;28;20042;-78
2023/04/17 04:25:50;;;;;;;3.72;1.60;;;;;;;;;;4993735;28;20034;-78
2023/04/17 04:28:26;;;;;;;2.85;1.50;;;;;;;;;;4977194;28;20408;-78
2023/04/17 04:30:54;;;;;;;5.68;1.40;;;;;;;;;;4976294;28;20046;-79
2023/04/17 04:33:24;;;;;;;3.75;1.40;;;;;;;;;;4992494;28;20030;-78
2023/04/17 04:35:54;;;;;;;11.05;2.83;;;;;;;;;;4992529;28;20041;-78
2023/04/17 04:38:28;;;;;;;4.38;1.88;;;;;;;;;;4992459;28;20038;-78
2023/04/17 04:41:00;;;;;;;5.90;2.05;;;;;;;;;;4992181;28;20045;-78
2023/04/17 04:43:28;;;;;;;4.15;1.98;;;;;;;;;;4993566;28;20455;-78
2023/04/17 04:45:55;;;;;;;5.45;1.90;;;;;;;;;;4992081;28;20077;-79
2023/04/17 04:48:23;;;;;;;8.07;1.98;;;;;;;;;;4991761;28;20034;-78
2023/04/17 04:50:49;;;;;;;5.80;1.85;;;;;;;;;;4992173;28;20036;-81
2023/04/17 04:53:16;;;;;;;4.35;1.77;;;;;;;;;;5008200;28;20038;-81
2023/04/17 04:55:55;;;;;;;2.10;1.60;;;;;;;;;;5008444;28;20435;-82
2023/04/17 04:58:22;;;;;;;7.53;2.50;;;;;;;;;;4992104;28;20026;-82
2023/04/17 05:00:51;;;;;;;4.18;1.50;;;;;;;;;;4993239;28;20396;-84
2023/04/17 05:03:28;;;;;;;8.85;1.77;;;;;;;;;;4994100;28;20125;-82
2023/04/17 05:05:56;;;;;;;3.00;1.92;;;;;;;;;;4992107;28;20121;-82
2023/04/17 05:08:26;;;;;;;4.70;1.77;;;;;;;;;;4991815;28;20057;-83
2023/04/17 05:10:59;;;;;;;4.68;1.98;;;;;;;;;;4991762;28;20408;-81
2023/04/17 05:13:25;;;;;;;5.57;1.73;;;;;;;;;;4991638;28;20045;-81
2023/04/17 05:15:54;;;;;;;4.20;1.50;;;;;;;;;;4975757;28;20038;-82
2023/04/17 05:18:25;;;;;;;3.28;1.65;;;;;;;;;;4976252;28;20065;-81
2023/04/17 05:20:51;;;;;;;3.85;2.08;;;;;;;;;;5008770;28;20051;-80
2023/04/17 05:23:21;;;;;;;3.47;1.73;;;;;;;;;;4993776;28;20030;-82
2023/04/17 05:25:49;;;;;;;4.03;1.65;;;;;;;;;;4976168;28;20034;-81
2023/04/17 05:28:16;;;;;;;3.55;1.50;;;;;;;;;;4991472;28;20592;-82
2023/04/17 05:30:43;;;;;;;5.47;1.60;;;;;;;;;;4975326;28;20103;-83
2023/04/17 05:33:35;;;;;;;3.10;1.63;;;;;;;;;;4992209;28;20039;-82
2023/04/17 05:36:03;;;;;;;8.75;2.03;;;;;;;;;;4992805;28;20035;-82
2023/04/17 05:38:33;;;;;;;3.65;1.40;;;;;;;;;;5008113;28;20029;-81
2023/04/17 05:41:00;;;;;;;3.42;1.38;;;;;;;;;;4991799;28;20038;-81
2023/04/17 05:43:27;;;;;;;2.33;1.50;;;;;;;;;;4991942;28;20022;-83
2023/04/17 05:45:53;;;;;;;3.20;1.45;;;;;;;;;;4991998;28;20070;-82
2023/04/17 05:48:20;;;;;;;3.42;1.30;;;;;;;;;;4991053;28;20496;-82
2023/04/17 05:50:46;;;;;;;2.25;1.25;;;;;;;;;;4990844;28;20030;-80
2023/04/17 05:53:13;;;;;;;2.45;1.33;;;;;;;;;;4972035;28;20090;-82
2023/04/17 05:55:48;;;;;;;2.58;1.50;;;;;;;;;;4992398;28;20042;-83
2023/04/17 05:58:13;;;;;;;3.65;1.50;;;;;;;;;;4975493;28;20388;-81
2023/04/17 06:00:42;;;;;;;3.95;1.38;;;;;;;;;;5007487;28;20096;-81
2023/04/17 06:03:13;;;;;;;4.05;1.60;;;;;;;;;;4992909;28;20138;-82
2023/04/17 06:05:45;;;;;;;5.18;2.00;;;;;;;;;;5007383;28;20039;-83
2023/04/17 06:08:11;;;;;;;4.18;1.83;;;;;;;;;;4992404;28;20038;-82
2023/04/17 06:10:37;;;;;;;3.03;1.50;;;;;;;;;;4989245;28;20089;-81
2023/04/17 06:13:03;;;;;;;3.65;1.73;;;;;;;;;;4990888;28;20031;-79
2023/04/17 06:15:33;;;;;;;3.88;1.88;;;;;;;;;;4990941;28;20489;-80
2023/04/17 06:17:59;;;;;;;3.85;1.80;;;;;;;;;;4992127;28;20039;-76
2023/04/17 06:20:25;;;;;;;2.72;1.50;;;;;;;;;;4990722;28;20054;-80
2023/04/17 06:22:52;;;;;;;4.38;1.70;;;;;;;;;;4982815;28;20435;-80
2023/04/17 06:25:18;;;;;;;4.63;1.63;;;;;;;;;;4992243;28;20018;-79
2023/04/17 06:27:44;;;;;;;2.28;1.50;;;;;;;;;;4994691;28;20057;-80
2023/04/17 06:30:10;;;;;;;4.30;1.73;;;;;;;;;;4996127;28;20439;-84
2023/04/17 06:32:47;;;;;;;3.33;1.50;;;;;;;;;;5010694;28;20035;-82
2023/04/17 06:35:14;;;;;;;3.13;1.70;;;;;;;;;;4997497;28;20038;-84
2023/04/17 06:37:47;;;;;;;3.72;1.70;;;;;;;;;;4996315;28;20089;-83
2023/04/17 06:40:13;;;;;;;3.03;1.60;;;;;;;;;;4996003;28;20034;-79
2023/04/17 06:42:41;;;;;;;2.45;1.42;;;;;;;;;;5011340;28;20113;-81
2023/04/17 06:45:11;;;;;;;2.85;1.25;;;;;;;;;;4995859;28;20075;-83
2023/04/17 06:47:41;;;;;;;3.10;1.60;;;;;;;;;;4981415;28;20041;-81
2023/04/17 06:50:08;;;;;;;2.53;1.35;;;;;;;;;;4996208;28;20048;-83
2023/04/17 06:52:36;;;;;;;4.60;1.60;;;;;;;;;;4995967;28;20022;-82
2023/04/17 06:55:02;;;;;;;2.10;1.33;;;;;;;;;;5010847;28;20051;-83
2023/04/17 06:57:28;;;;;;;5.60;1.70;;;;;;;;;;4996554;28;20037;-81
2023/04/17 06:59:53;;;;;;;4.47;1.60;;;;;;;;;;4995737;28;20030;-81
2023/04/17 07:02:20;;;;;;;3.38;1.70;;;;;;;;;;4995430;28;20076;-81
2023/04/17 07:04:46;;;;;;;2.25;1.17;;;;;;;;;;4995269;28;20046;-79
2023/04/17 07:07:12;;;;;;;3.70;1.48;;;;;;;;;;5009291;28;20038;-80
2023/04/17 07:09:38;;;;;;;2.20;1.20;;;;;;;;;;4993431;28;20070;-79
2023/04/17 07:12:04;;;;;;;3.72;1.40;;;;;;;;;;4977398;28;20026;-80
2023/04/17 07:14:30;;;;;;;3.40;1.23;;;;;;;;;;4993349;28;20038;-80
2023/04/17 07:16:56;;;;;;;5.32;1.20;;;;;;;;;;4994936;28;20085;-80
2023/04/17 07:19:23;;;;;;;2.85;1.30;;;;;;;;;;4994681;28;20030;-79
2023/04/17 07:21:52;;;;;;;5.20;1.60;;;;;;;;;;4994795;28;20081;-82
2023/04/17 07:24:20;;;;;;;5.05;1.60;;;;;;;;;;4994633;28;20042;-82
2023/04/17 07:26:48;;;;;;;6.55;2.15;;;;;;;;;;4993312;28;20038;-80
2023/04/17 07:29:14;;;;;;;2.15;1.30;;;;;;;;;;4993052;28;20042;-83
2023/04/17 07:31:41;;;;;;;3.10;1.30;;;;;;;;;;4994365;28;20109;-82
2023/04/17 07:34:07;;;;;;;5.05;1.30;;;;;;;;;;4994312;28;20054;-81
2023/04/17 07:36:35;;;;;;;3.40;1.20;;;;;;;;;;4993696;28;20114;-81
2023/04/17 07:39:02;;;;;;;3.95;1.25;;;;;;;;;;4993684;28;20515;-80
2023/04/17 07:41:28;;;;;;;4.25;1.13;;;;;;;;;;4993882;28;20034;-80
2023/04/17 07:43:56;;;;;;;2.92;1.02;;;;;;;;;;4994025;28;20062;-82
2023/04/17 07:46:21;;;;;;;2.08;1.10;;;;;;;;;;4994425;28;20026;-79
2023/04/17 07:48:47;;;;;;;3.40;1.50;;;;;;;;;;4992606;28;20038;-80
2023/04/17 07:51:15;;;;;;;3.55;1.42;;;;;;;;;;4994041;28;20025;-79
2023/04/17 07:53:42;;;;;;;4.18;1.98;;;;;;;;;;4994191;28;20038;-79
2023/04/17 07:56:08;;;;;;;4.38;3.03;;;;;;;;;;4992623;28;20038;-78
2023/04/17 07:58:34;;;;;;;1.52;1.20;;;;;;;;;;4993697;28;20046;-81
2023/04/17 08:01:04;;;;;;;2.67;1.00;;;;;;;;;;4994063;28;20056;-82
2023/04/17 08:03:31;;;;;;;1.77;1.00;;;;;;;;;;4994921;28;20042;-80
2023/04/17 08:05:57;;;;;;;2.10;1.02;;;;;;;;;;4995665;28;20041;-80
2023/04/17 08:08:24;;;;;;;2.00;1.00;;;;;;;;;;4991987;28;20408;-79
2023/04/17 08:10:54;;;;;;;2.40;0.98;;;;;;;;;;5008703;28;20070;-79
2023/04/17 08:13:20;;;;;;;1.60;0.95;;;;;;;;;;4994218;28;20045;-80
2023/04/17 08:15:46;;;;;;;1.85;1.00;;;;;;;;;;4992574;28;20042;-81
2023/04/17 08:18:12;;;;;;;2.40;0.90;;;;;;;;;;4992790;28;20042;-81
2023/04/17 08:20:39;;;;;;;4.05;1.20;;;;;;;;;;4993774;28;20073;-80
2023/04/17 08:23:05;;;;;;;2.67;1.10;;;;;;;;;;4993291;28;20030;-79
2023/04/17 08:25:31;;;;;;;4.43;1.10;;;;;;;;;;4992453;28;20385;-77
2023/04/17 08:27:56;;;;;;;2.28;1.02;;;;;;;;;;4992834;28;20038;-80
2023/04/17 08:30:22;;;;;;;4.18;1.17;;;;;;;;;;4991973;28;20038;-80
2023/04/17 08:32:50;;;;;;;4.43;1.30;;;;;;;;;;4992274;28;20113;-78
2023/04/17 08:35:19;;;;;;;3.58;1.35;;;;;;;;;;4992057;28;20030;-78
2023/04/17 08:37:46;;;;;;;2.33;1.13;;;;;;;;;;4992860;28;20050;-78
2023/04/17 08:40:12;;;;;;;5.10;1.20;;;;;;;;;;4992802;28;20041;-78
2023/04/17 08:42:40;;;;;;;14.98;2.17;;;;;;;;;;4992485;28;20053;-79
2023/04/17 08:45:10;;;;;;;9.20;1.65;;;;;;;;;;4992895;28;20030;-77
2023/04/17 08:47:41;;;;;;;5.20;1.90;;;;;;;;;;4992547;28;20065;-78
2023/04/17 08:50:12;;;;;;;2.88;1.40;;;;;;;;;;4992315;28;20085;-78
2023/04/17 08:52:40;;;;;;;2.35;1.20;;;;;;;;;;4992672;28;20595;-77
2023/04/17 08:55:06;;;;;;;3.30;1.30;;;;;;;;;;4987901;28;20030;-76
2023/04/17 08:57:33;;;;;;;4.40;1.23;;;;;;;;;;4989014;28;20026;-77
2023/04/17 09:00:01;;;;;;;5.40;1.60;;;;;;;;;;4992641;28;20129;-75
2023/04/17 09:02:27;;;;;;;3.67;1.30;;;;;;;;;;4991593;28;20100;-78
2023/04/17 09:04:52;;;;;;;3.95;2.08;;;;;;;;;;4991861;28;20500;-76
2023/04/17 09:07:28;;;;;;;2.95;1.52;;;;;;;;;;4992660;28;20042;-77
2023/04/17 09:09:55;;;;;;;5.60;3.30;;;;;;;;;;4991727;28;20088;-78
2023/04/17 09:12:23;;;;;;;3.05;1.50;;;;;;;;;;4990935;28;20026;-77
2023/04/17 09:14:49;;;;;;;3.33;1.42;;;;;;;;;;4992738;28;20027;-76
2023/04/17 09:17:19;;;;;;;3.45;1.65;;;;;;;;;;4992185;28;20113;-77
2023/04/17 09:20:11;;;;;;;2.67;1.02;;;;;;;;;;4992120;28;20039;-75
2023/04/17 09:22:41;;;;;;;1.45;0.77;;;;;;;;;;4992620;28;20038;-76
2023/04/17 09:25:16;;;;;;;1.60;0.90;;;;;;;;;;4991466;28;20438;-77
2023/04/17 09:27:42;;;;;;;1.10;0.70;;;;;;;;;;4990789;28;20065;-78
2023/04/17 09:30:08;;;;;;;2.33;1.13;;;;;;;;;;4992119;28;20018;-76
2023/04/17 09:32:35;;;;;;;3.33;1.23;;;;;;;;;;4990683;28;20034;-77
2023/04/17 09:35:03;;;;;;;6.57;2.88;;;;;;;;;;4992569;28;20603;-77
2023/04/17 09:37:48;;;;;;;6.03;2.70;;;;;;;;;;4992297;28;20038;-77
2023/04/17 09:40:20;;;;;;;4.80;2.60;;;;;;;;;;4992387;28;20036;-76
2023/04/17 09:43:04;;;;;;;5.55;2.20;;;;;;;;;;5007501;28;20038;-78
2023/04/17 09:45:38;;;;;;;4.40;2.00;;;;;;;;;;4991878;28;20038;-76
2023/04/17 09:48:12;;;;;;;2.97;1.60;;;;;;;;;;4992309;28;20034;-77
2023/04/17 09:50:39;;;;;;;;;;;;;;;;;;4992305;28;20080;-79
2023/04/17 09:53:08;;;;;;;2.90;1.30;;;;;;;;;;4992185;28;19984;-77
2023/04/17 09:55:36;;;;;;;2.92;1.30;;;;;;;;;;4992427;28;20038;-77
2023/04/17 09:58:05;;;;;;;3.00;1.20;;;;;;;;;;4991609;28;20019;-76
2023/04/17 10:00:31;;;;;;;5.20;2.22;;;;;;;;;;4992645;28;20045;-77
2023/04/17 10:02:58;;;;;;;4.72;1.77;;;;;;;;;;4995851;28;20018;-77
2023/04/17 10:05:26;;;;;;;3.75;1.77;;;;;;;;;;4994572;28;20375;-77
2023/04/17 10:07:55;;;;;;;3.42;1.60;;;;;;;;;;4996024;28;20034;-76
2023/04/17 10:10:22;;;;;;;2.85;1.40;;;;;;;;;;4995684;28;20076;-75
2023/04/17 10:12:49;;;;;;;2.30;1.25;;;;;;;;;;4995689;28;20065;-76
2023/04/17 10:15:15;;;;;;;8.80;1.52;;;;;;;;;;4994322;28;20568;-76
2023/04/17 10:17:42;;;;;;;6.80;1.60;;;;;;;;;;4994216;28;20123;-77
2023/04/17 10:20:14;;;;;;;6.95;1.90;;;;;;;;;;4994163;28;20129;-77
2023/04/17 10:23:29;;;;;;;6.63;1.70;;;;;;;;;;4973735;28;20142;-76
2023/04/17 10:26:28;;;;;;;5.22;1.75;;;;;;;;;;4973750;28;20387;-75
2023/04/17 10:28:56;;;;;;;3.70;1.48;;;;;;;;;;4973323;28;20077;-77
2023/04/17 10:31:43;;;;;;;5.13;1.40;;;;;;;;;;4973541;28;20249;-78
2023/04/17 10:34:35;;;;;;;1.80;0.93;;;;;;;;;;4960200;28;20512;-78
2023/04/17 10:37:02;;;;;;;1.77;1.20;;;;;;;;;;4973574;28;20050;-77
2023/04/17 10:39:55;;;;;;;5.50;1.40;;;;;;;;;;4973549;28;20066;-77
2023/04/17 10:42:22;;;;;;;5.85;1.88;;;;;;;;;;4958054;28;20440;-78
2023/04/17 10:44:49;;;;;;;2.58;1.30;;;;;;;;;;4973712;28;20106;-76
2023/04/17 10:47:19;;;;;;;4.13;1.60;;;;;;;;;;4973411;28;20121;-76
2023/04/17 10:49:54;;;;;;;2.45;1.30;;;;;;;;;;4972977;28;20137;-76
2023/04/17 10:52:40;;;;;;;2.88;1.40;;;;;;;;;;4973447;28;20043;-77
2023/04/17 10:55:14;;;;;;;2.97;1.13;;;;;;;;;;4993896;28;20046;-77
2023/04/17 10:58:03;;;;;;;1.92;1.10;;;;;;;;;;4995024;28;20104;-76
2023/04/17 11:00:38;;;;;;;3.90;1.15;;;;;;;;;;4993278;28;20122;-78
2023/04/17 11:03:05;;;;;;;2.38;1.05;;;;;;;;;;4992400;28;20035;-77
2023/04/17 11:05:32;;;;;;;3.58;1.10;;;;;;;;;;4995194;28;20027;-77
2023/04/17 11:07:58;;;;;;;1.90;1.20;;;;;;;;;;4992668;28;20045;-77
2023/04/17 11:10:25;;;;;;;2.55;1.10;;;;;;;;;;4981057;28;20031;-77
2023/04/17 11:12:57;;;;;;;2.05;1.10;;;;;;;;;;4991676;28;20400;-77
2023/04/17 11:15:28;;;;;;;4.07;1.27;;;;;;;;;;4988927;28;20065;-77
2023/04/17 11:17:55;;;;;;;1.98;0.80;;;;;;;;;;4993229;28;20045;-76
2023/04/17 11:20:22;;;;;;;2.40;1.02;;;;;;;;;;4994475;28;20026;-77
2023/04/17 11:22:48;;;;;;;1.10;0.70;;;;;;;;;;4991507;28;20482;-76
2023/04/17 11:25:26;;;;;;;3.85;1.73;;;;;;;;;;4994808;28;20022;-76
2023/04/17 11:27:59;;;;;;;3.72;2.22;;;;;;;;;;4991278;28;20073;-76
2023/04/17 11:30:32;;;;;;;;;;;;;;;;;;4990266;28;20058;-77
2023/04/17 11:33:07;;;;;;;3.00;0.73;;;;;;;;;;4993600;28;19922;-76
2023/04/17 11:35:35;;;;;;;4.60;0.90;;;;;;;;;;4993993;28;20034;-76
2023/04/17 11:38:19;;;;;;;1.23;0.70;;;;;;;;;;4986083;28;20484;-77
2023/04/17 11:40:46;;;;;;;1.27;0.60;;;;;;;;;;4989563;28;20730;-78
2023/04/17 11:43:14;;;;;;;1.60;0.57;;;;;;;;;;4993488;28;20463;-76
2023/04/17 11:45:42;;;;;;;1.48;0.85;;;;;;;;;;4995023;28;20061;-76
2023/04/17 11:48:11;;;;;;;1.30;0.80;;;;;;;;;;4995817;28;20036;-77
2023/04/17 11:50:39;;;;;;;1.08;0.60;;;;;;;;;;4991255;28;20515;-78
2023/04/17 11:53:05;;;;;;;1.10;0.80;;;;;;;;;;4993599;28;20104;-78
2023/04/17 11:55:33;;;;;;;2.75;1.10;;;;;;;;;;4989089;28;20061;-78
2023/04/17 11:58:05;;;;;;;1.10;0.80;;;;;;;;;;4993168;28;20113;-80
2023/04/17 12:00:31;;;;;;;1.92;0.82;;;;;;;;;;4992091;28;20046;-79
2023/04/17 12:03:00;;;;;;;0.88;0.52;;;;;;;;;;4993461;28;20077;-79
2023/04/17 12:05:29;;;;;;;1.55;0.70;;;;;;;;;;4993698;28;20115;-79
2023/04/17 12:08:06;;;;;;;1.45;0.57;;;;;;;;;;4990518;28;20077;-80
2023/04/17 12:10:43;;;;;;;4.13;0.82;;;;;;;;;;4992012;28;20182;-80
2023/04/17 12:13:22;;;;;;;0.50;0.43;;;;;;;;;;4981181;28;20038;-79
2023/04/17 12:15:48;;;;;;;5.57;3.03;;;;;;;;;;4973459;28;20034;-78
2023/04/17 12:18:14;;;;;;;6.18;1.80;;;;;;;;;;4992674;28;20034;-80
2023/04/17 12:20:40;;;;;;;3.75;1.10;;;;;;;;;;4989723;28;20030;-80
2023/04/17 12:23:11;;;;;;;1.95;0.60;;;;;;;;;;5007870;28;20014;-77
2023/04/17 12:25:37;;;;;;;0.88;0.60;;;;;;;;;;4993191;28;20049;-77
2023/04/17 12:28:03;;;;;;;6.38;3.15;;;;;;;;;;4993453;28;20057;-76
2023/04/17 12:30:32;;;;;;;1.77;0.70;;;;;;;;;;4991619;28;20096;-78
2023/04/17 12:32:58;;;;;;;1.00;0.80;;;;;;;;;;4991123;28;20033;-78
2023/04/17 12:35:23;;;;;;;1.77;0.90;;;;;;;;;;4992591;28;20034;-77
2023/04/17 12:37:50;;;;;;;2.63;0.60;;;;;;;;;;4992225;28;20030;-79
2023/04/17 12:40:17;;;;;;;0.57;0.43;;;;;;;;;;4992439;28;20057;-78
2023/04/17 12:42:44;;;;;;;3.47;0.95;;;;;;;;;;4991305;28;20209;-77
2023/04/17 12:45:10;;;;;;;2.38;0.90;;;;;;;;;;4990981;28;20340;-78
2023/04/17 12:47:36;;;;;;;2.28;0.80;;;;;;;;;;4992589;28;20050;-77
2023/04/17 12:50:02;;;;;;;8.93;4.25;;;;;;;;;;4990202;28;20034;-78
2023/04/17 12:52:28;;;;;;;41.67;24.15;;;;;;;;;;4990139;28;20396;-78
2023/04/17 12:54:58;;;;;;;3.47;1.50;;;;;;;;;;4991037;28;20038;-78
2023/04/17 12:57:27;;;;;;;50.88;27.02;;;;;;;;;;4983828;28;20030;-78
2023/04/17 12:59:53;;;;;;;2.40;1.13;;;;;;;;;;4991326;28;20038;-78
2023/04/17 13:02:22;;;;;;;18.13;10.30;;;;;;;;;;4991265;28;20067;-79
2023/04/17 13:04:51;;;;;;;9.27;5.22;;;;;;;;;;4992400;28;20554;-78
2023/04/17 13:07:19;;;;;;;18.27;10.27;;;;;;;;;;4991514;28;20070;-78
2023/04/17 13:09:45;;;;;;;22.73;14.45;;;;;;;;;;4992430;28;20022;-78
2023/04/17 13:12:12;;;;;;;5.55;3.25;;;;;;;;;;4992561;28;20485;-79
2023/04/17 13:14:41;;;;;;;7.43;5.15;;;;;;;;;;4992255;28;20049;-79
2023/04/17 13:17:07;;;;;;;4.78;1.45;;;;;;;;;;4983602;28;20066;-79
2023/04/17 13:19:33;;;;;;;2.20;0.90;;;;;;;;;;4989319;28;20061;-78
2023/04/17 13:22:00;;;;;;;1.85;1.10;;;;;;;;;;4993318;28;20034;-79
2023/04/17 13:24:26;;;;;;;6.78;3.13;;;;;;;;;;4991202;28;20030;-79
2023/04/17 13:26:56;;;;;;;4.80;1.65;;;;;;;;;;4993131;28;20039;-77
2023/04/17 13:29:22;;;;;;;11.32;4.82;;;;;;;;;;5008125;28;20034;-77
2023/04/17 13:31:49;;;;;;;3.42;1.48;;;;;;;;;;4991934;28;20045;-77
2023/04/17 13:34:16;;;;;;;3.42;2.03;;;;;;;;;;4991935;28;20105;-76
2023/04/17 13:36:43;;;;;;;3.33;1.42;;;;;;;;;;4993852;28;20031;-76
2023/04/17 13:39:10;;;;;;;3.40;1.45;;;;;;;;;;4988421;28;20022;-81
2023/04/17 13:41:36;;;;;;;2.13;1.15;;;;;;;;;;4999233;28;20061;-82
2023/04/17 13:44:03;;;;;;;2.47;1.40;;;;;;;;;;4997414;28;20089;-82
2023/04/17 13:46:31;;;;;;;2.45;1.15;;;;;;;;;;4996838;28;20054;-82
2023/04/17 13:48:59;;;;;;;1.75;1.10;;;;;;;;;;4998597;28;20034;-80
2023/04/17 13:51:26;;;;;;;2.53;1.25;;;;;;;;;;4997318;28;20026;-81
2023/04/17 13:53:53;;;;;;;2.08;1.20;;;;;;;;;;5013982;28;20523;-77
2023/04/17 13:56:22;;;;;;;2.70;1.42;;;;;;;;;;4995476;28;20614;-76
2023/04/17 13:58:48;;;;;;;2.85;1.00;;;;;;;;;;4994051;28;20046;-78
2023/04/17 14:01:13;;;;;;;2.13;0.80;;;;;;;;;;4995748;28;20071;-77
2023/04/17 14:03:39;;;;;;;5.47;1.50;;;;;;;;;;4996124;28;20027;-77
2023/04/17 14:06:05;;;;;;;2.15;1.10;;;;;;;;;;4995746;28;20504;-75
2023/04/17 14:08:31;;;;;;;2.83;1.08;;;;;;;;;;4989163;28;20446;-77
2023/04/17 14:10:57;;;;;;;2.03;1.08;;;;;;;;;;4974517;28;20118;-77
2023/04/17 14:13:23;;;;;;;1.73;0.90;;;;;;;;;;4976122;28;20046;-77
2023/04/17 14:15:52;;;;;;;3.35;1.10;;;;;;;;;;4983678;28;20018;-78
2023/04/17 14:18:18;;;;;;;3.22;1.05;;;;;;;;;;4993493;28;20121;-77
2023/04/17 14:20:44;;;;;;;2.30;1.10;;;;;;;;;;4992455;28;20468;-77
2023/04/17 14:23:10;;;;;;;2.55;1.13;;;;;;;;;;4990731;28;20129;-77
2023/04/17 14:25:36;;;;;;;3.50;1.13;;;;;;;;;;5006703;28;20109;-76
2023/04/17 14:28:03;;;;;;;1.42;0.85;;;;;;;;;;5010571;28;20042;-76
2023/04/17 14:30:28;;;;;;;1.80;1.00;;;;;;;;;;4995394;28;20034;-77
2023/04/17 14:32:54;;;;;;;5.00;1.20;;;;;;;;;;4992915;28;20053;-76
2023/04/17 14:35:20;;;;;;;1.70;0.95;;;;;;;;;;4994836;28;20018;-77
2023/04/17 14:37:46;;;;;;;3.75;1.15;;;;;;;;;;4994665;28;20038;-75
2023/04/17 14:40:12;;;;;;;1.50;0.90;;;;;;;;;;4994702;28;20116;-78
2023/04/17 14:42:39;;;;;;;1.48;0.98;;;;;;;;;;4995003;28;20030;-77
2023/04/17 14:45:05;;;;;;;1.55;1.38;;;;;;;;;;4995030;28;20018;-77
2023/04/17 14:47:32;;;;;;;6.13;1.40;;;;;;;;;;4994191;28;20031;-76
2023/04/17 14:49:57;;;;;;;4.78;1.70;;;;;;;;;;4986992;28;20480;-76